createdAt,value
2018-08-28T00:01:50.025Z,16.70
2018-08-28T00:05:14.418Z,16.70
2018-08-28T00:08:38.821Z,16.70
2018-08-28T00:12:03.273Z,16.70
2018-08-28T00:15:27.650Z,16.70
2018-08-28T00:18:52.195Z,16.60
2018-08-28T00:22:16.573Z,16.60
2018-08-28T00:25:41.085Z,16.60
2018-08-28T00:29:05.496Z,16.70
2018-08-28T00:32:29.902Z,16.60
2018-08-28T00:35:54.270Z,16.60
2018-08-28T00:39:18.645Z,16.60
2018-08-28T00:42:43.038Z,16.60
2018-08-28T00:46:07.457Z,16.50
2018-08-28T00:49:31.846Z,16.50
2018-08-28T00:52:56.261Z,16.50
2018-08-28T00:56:20.656Z,16.40
2018-08-28T00:59:45.039Z,16.40
2018-08-28T01:03:09.468Z,16.40
2018-08-28T01:06:33.870Z,16.40
2018-08-28T01:09:58.233Z,16.40
2018-08-28T01:13:22.633Z,16.40
2018-08-28T01:16:47.044Z,16.40
2018-08-28T01:20:11.510Z,16.40
2018-08-28T01:23:35.887Z,16.40
2018-08-28T01:27:00.265Z,16.40
2018-08-28T01:30:29.996Z,16.40
2018-08-28T01:33:54.393Z,16.40
2018-08-28T01:37:18.764Z,16.40
2018-08-28T01:40:43.145Z,16.30
2018-08-28T01:44:07.526Z,16.30
2018-08-28T01:47:31.916Z,16.20
2018-08-28T01:50:56.460Z,16.20
2018-08-28T01:54:20.829Z,16.20
2018-08-28T01:57:45.224Z,16.20
2018-08-28T02:01:09.695Z,16.20
2018-08-28T02:04:34.089Z,16.20
2018-08-28T02:07:58.481Z,16.20
2018-08-28T02:11:22.874Z,16.30
2018-08-28T02:14:47.265Z,16.20
2018-08-28T02:18:17.817Z,16.20
2018-08-28T02:21:42.188Z,16.30
2018-08-28T02:25:08.087Z,16.30
2018-08-28T02:28:32.489Z,16.30
2018-08-28T02:31:56.964Z,16.30
2018-08-28T02:35:21.402Z,16.20
2018-08-28T02:38:45.877Z,16.20
2018-08-28T02:42:10.281Z,16.20
2018-08-28T02:45:34.724Z,16.10
2018-08-28T02:48:59.157Z,16.10
2018-08-28T02:52:23.594Z,16.00
2018-08-28T02:55:47.993Z,16.00
2018-08-28T02:59:12.717Z,15.90
2018-08-28T03:02:37.154Z,15.90
2018-08-28T03:06:01.610Z,15.90
2018-08-28T03:09:26.018Z,15.80
2018-08-28T03:12:50.430Z,15.70
2018-08-28T03:16:14.853Z,15.70
2018-08-28T03:19:39.285Z,15.60
2018-08-28T03:23:03.677Z,15.50
2018-08-28T03:26:28.101Z,15.50
2018-08-28T03:29:52.542Z,15.40
2018-08-28T03:33:16.924Z,15.40
2018-08-28T03:36:41.348Z,15.40
2018-08-28T03:40:06.545Z,15.40
2018-08-28T03:43:30.980Z,15.30
2018-08-28T03:46:55.417Z,15.20
2018-08-28T03:50:19.958Z,15.20
2018-08-28T03:53:44.332Z,15.10
2018-08-28T03:57:08.789Z,15.10
2018-08-28T04:00:33.184Z,15.00
2018-08-28T04:03:57.639Z,15.00
2018-08-28T04:07:22.054Z,15.00
2018-08-28T04:10:46.485Z,15.00
2018-08-28T04:14:10.927Z,15.00
2018-08-28T04:17:47.603Z,14.80
2018-08-28T04:21:12.029Z,14.80
2018-08-28T04:24:36.444Z,14.70
2018-08-28T04:28:00.925Z,14.70
2018-08-28T04:31:25.563Z,14.70
2018-08-28T04:34:50.109Z,14.60
2018-08-28T04:38:14.654Z,14.60
2018-08-28T04:41:39.113Z,14.60
2018-08-28T04:45:03.618Z,14.50
2018-08-28T04:48:29.443Z,14.50
2018-08-28T04:51:53.893Z,14.50
2018-08-28T04:55:18.295Z,14.50
2018-08-28T04:58:42.684Z,14.40
2018-08-28T05:02:07.243Z,14.40
2018-08-28T05:05:31.681Z,14.30
2018-08-28T05:08:56.266Z,14.30
2018-08-28T05:12:23.078Z,14.30
2018-08-28T05:15:47.552Z,14.30
2018-08-28T05:19:12.001Z,14.30
2018-08-28T05:22:36.484Z,14.30
2018-08-28T05:26:01.149Z,14.30
2018-08-28T05:29:25.604Z,14.30
2018-08-28T05:32:49.990Z,14.30
2018-08-28T05:36:14.438Z,14.30
2018-08-28T05:39:38.931Z,14.40
2018-08-28T05:43:03.516Z,14.40
2018-08-28T05:46:28.121Z,14.50
2018-08-28T05:49:52.595Z,14.50
2018-08-28T05:53:17.119Z,14.50
2018-08-28T05:56:41.551Z,14.60
2018-08-28T06:00:06.823Z,14.60
2018-08-28T06:03:31.368Z,14.60
2018-08-28T06:06:55.773Z,14.70
2018-08-28T06:10:20.291Z,14.70
2018-08-28T06:13:44.773Z,14.80
2018-08-28T06:17:09.388Z,14.90
2018-08-28T06:20:33.849Z,14.90
2018-08-28T06:23:58.292Z,14.90
2018-08-28T06:27:22.724Z,14.90
2018-08-28T06:30:47.186Z,14.90
2018-08-28T06:34:11.700Z,15.00
2018-08-28T06:37:36.130Z,15.10
2018-08-28T06:41:00.588Z,15.10
2018-08-28T06:44:25.075Z,15.20
2018-08-28T06:47:49.529Z,15.30
2018-08-28T06:51:13.968Z,15.40
2018-08-28T06:54:38.416Z,15.40
2018-08-28T06:58:02.826Z,15.50
2018-08-28T07:01:27.218Z,15.60
2018-08-28T07:04:51.667Z,15.60
2018-08-28T07:08:16.083Z,15.70
2018-08-28T07:11:40.537Z,15.80
2018-08-28T07:15:05.021Z,15.90
2018-08-28T07:18:29.433Z,16.10
2018-08-28T07:21:53.897Z,16.20
2018-08-28T07:25:18.382Z,16.30
2018-08-28T07:28:42.852Z,16.40
2018-08-28T07:32:07.389Z,16.50
2018-08-28T07:35:31.804Z,16.60
2018-08-28T07:38:56.245Z,16.70
2018-08-28T07:42:20.706Z,16.80
2018-08-28T07:45:45.123Z,16.90
2018-08-28T07:49:09.677Z,17.00
2018-08-28T07:52:34.187Z,17.10
2018-08-28T07:55:58.612Z,17.10
2018-08-28T07:59:23.027Z,17.10
2018-08-28T08:02:47.468Z,17.20
2018-08-28T08:06:11.865Z,17.30
2018-08-28T08:09:36.301Z,17.40
2018-08-28T08:13:00.764Z,17.50
2018-08-28T08:16:25.196Z,17.60
2018-08-28T08:19:49.625Z,17.80
2018-08-28T08:23:14.093Z,17.90
2018-08-28T08:26:38.567Z,18.00
2018-08-28T08:30:03.061Z,18.20
2018-08-28T08:33:27.492Z,18.30
2018-08-28T08:36:51.979Z,18.30
2018-08-28T08:40:16.418Z,18.40
2018-08-28T08:43:40.846Z,18.50
2018-08-28T08:47:05.286Z,18.70
2018-08-28T08:50:29.700Z,19.00
2018-08-28T08:53:54.138Z,19.20
2018-08-28T08:57:18.723Z,19.20
2018-08-28T09:00:43.141Z,19.20
2018-08-28T09:04:07.893Z,19.30
2018-08-28T09:07:32.809Z,19.60
2018-08-28T09:10:57.327Z,19.70
2018-08-28T09:14:21.803Z,19.90
2018-08-28T09:17:46.228Z,20.10
2018-08-28T09:21:10.644Z,20.10
2018-08-28T09:24:35.092Z,20.10
2018-08-28T09:27:59.503Z,20.10
2018-08-28T09:31:24.045Z,20.30
2018-08-28T09:34:48.478Z,20.50
2018-08-28T09:38:12.911Z,20.80
2018-08-28T09:41:37.750Z,20.80
2018-08-28T09:45:02.194Z,20.70
2018-08-28T09:48:26.736Z,20.60
2018-08-28T09:51:51.085Z,20.80
2018-08-28T09:55:15.571Z,21.00
2018-08-28T09:58:40.446Z,20.90
2018-08-28T10:02:04.895Z,21.40
2018-08-28T10:05:29.344Z,21.40
2018-08-28T10:08:53.823Z,22.00
2018-08-28T10:12:18.231Z,23.20
2018-08-28T10:15:42.653Z,23.80
2018-08-28T10:19:07.448Z,23.20
2018-08-28T10:22:31.922Z,23.20
2018-08-28T10:25:56.387Z,22.90
2018-08-28T10:29:20.846Z,22.70
2018-08-28T10:32:45.244Z,22.50
2018-08-28T10:36:09.644Z,23.20
2018-08-28T10:39:34.141Z,23.40
2018-08-28T10:42:58.587Z,24.10
2018-08-28T10:46:23.109Z,24.60
2018-08-28T10:49:47.618Z,24.70
2018-08-28T10:53:12.059Z,24.40
2018-08-28T10:56:36.560Z,23.90
2018-08-28T11:00:00.981Z,23.60
2018-08-28T11:03:25.424Z,23.40
2018-08-28T11:06:49.860Z,23.60
2018-08-28T11:10:14.293Z,23.70
2018-08-28T11:13:38.741Z,25.00
2018-08-28T11:17:03.545Z,25.00
2018-08-28T11:20:28.050Z,24.80
2018-08-28T11:23:52.541Z,24.50
2018-08-28T11:27:17.132Z,23.70
2018-08-28T11:30:41.672Z,23.70
2018-08-28T11:34:06.119Z,24.20
2018-08-28T11:37:30.574Z,24.30
2018-08-28T11:40:54.996Z,24.30
2018-08-28T11:44:19.445Z,24.30
2018-08-28T11:47:43.864Z,24.60
2018-08-28T11:51:08.321Z,24.70
2018-08-28T11:54:32.811Z,24.80
2018-08-28T11:57:57.306Z,24.50
2018-08-28T12:01:21.768Z,24.80
2018-08-28T12:04:46.285Z,25.30
2018-08-28T12:08:10.694Z,25.10
2018-08-28T12:11:35.093Z,25.10
2018-08-28T12:14:59.556Z,25.70
2018-08-28T12:18:23.953Z,27.00
2018-08-28T12:21:49.867Z,27.00
2018-08-28T12:25:14.316Z,26.20
2018-08-28T12:28:38.718Z,25.50
2018-08-28T12:32:03.184Z,25.30
2018-08-28T12:35:27.609Z,25.00
2018-08-28T12:38:52.024Z,24.80
2018-08-28T12:42:16.537Z,25.30
2018-08-28T12:45:40.974Z,26.00
2018-08-28T12:49:05.496Z,27.20
2018-08-28T12:52:30.109Z,27.40
2018-08-28T12:55:54.568Z,26.90
2018-08-28T12:59:18.990Z,26.90
2018-08-28T13:02:43.468Z,27.70
2018-08-28T13:06:08.004Z,29.50
2018-08-28T13:09:32.434Z,31.00
2018-08-28T13:12:56.856Z,32.50
2018-08-28T13:16:21.281Z,33.00
2018-08-28T13:19:45.701Z,33.00
2018-08-28T13:23:10.138Z,33.20
2018-08-28T13:26:34.617Z,33.00
2018-08-28T13:29:59.066Z,33.30
2018-08-28T13:33:23.530Z,34.50
2018-08-28T13:36:47.951Z,34.50
2018-08-28T13:40:12.575Z,34.60
2018-08-28T13:43:36.908Z,34.60
2018-08-28T13:47:01.452Z,34.70
2018-08-28T13:50:25.852Z,34.70
2018-08-28T13:53:50.334Z,34.30
2018-08-28T13:57:14.726Z,35.00
2018-08-28T14:00:39.197Z,35.40
2018-08-28T14:04:03.729Z,35.80
2018-08-28T14:07:31.371Z,36.30
2018-08-28T14:10:55.849Z,35.40
2018-08-28T14:14:20.316Z,35.60
2018-08-28T14:17:44.769Z,35.10
2018-08-28T14:21:09.197Z,35.30
2018-08-28T14:24:33.633Z,36.10
2018-08-28T14:27:58.034Z,36.80
2018-08-28T14:31:22.444Z,37.30
2018-08-28T14:34:46.902Z,36.80
2018-08-28T14:38:11.343Z,36.40
2018-08-28T14:41:35.850Z,37.00
2018-08-28T14:45:07.710Z,38.00
2018-08-28T14:48:32.159Z,37.70
2018-08-28T14:51:56.644Z,37.60
2018-08-28T14:55:21.064Z,36.90
2018-08-28T14:58:45.496Z,37.10
2018-08-28T15:02:09.947Z,37.40
2018-08-28T15:05:34.367Z,37.60
2018-08-28T15:08:58.750Z,38.80
2018-08-28T15:12:23.187Z,38.50
2018-08-28T15:15:47.995Z,38.50
2018-08-28T15:19:13.456Z,37.80
2018-08-28T15:22:38.292Z,38.10
2018-08-28T15:26:03.073Z,38.30
2018-08-28T15:29:27.864Z,38.40
2018-08-28T15:32:52.534Z,38.90
2018-08-28T15:36:17.138Z,39.30
2018-08-28T15:39:41.590Z,39.50
2018-08-28T15:43:06.250Z,39.40
2018-08-28T15:46:30.583Z,39.80
2018-08-28T15:49:55.016Z,39.50
2018-08-28T15:53:19.444Z,39.20
2018-08-28T15:56:43.870Z,39.10
2018-08-28T16:00:08.286Z,38.80
2018-08-28T16:03:32.702Z,38.20
2018-08-28T16:06:57.144Z,38.20
2018-08-28T16:10:21.631Z,37.90
2018-08-28T16:13:46.032Z,38.20
2018-08-28T16:17:10.456Z,37.60
2018-08-28T16:20:34.937Z,37.80
2018-08-28T16:23:59.336Z,37.30
2018-08-28T16:27:23.805Z,35.70
2018-08-28T16:30:48.288Z,33.70
2018-08-28T16:34:12.715Z,32.10
2018-08-28T16:37:37.322Z,31.00
2018-08-28T16:41:01.759Z,30.40
2018-08-28T16:44:26.206Z,29.90
2018-08-28T16:47:50.610Z,30.20
2018-08-28T16:51:15.104Z,31.50
2018-08-28T16:54:39.578Z,31.80
2018-08-28T16:58:03.980Z,31.10
2018-08-28T17:01:28.485Z,30.00
2018-08-28T17:04:52.904Z,29.30
2018-08-28T17:08:17.328Z,28.70
2018-08-28T17:11:41.834Z,28.10
2018-08-28T17:15:06.396Z,27.50
2018-08-28T17:18:31.044Z,27.10
2018-08-28T17:21:55.501Z,26.60
2018-08-28T17:25:19.968Z,26.40
2018-08-28T17:28:44.397Z,25.90
2018-08-28T17:32:08.826Z,25.50
2018-08-28T17:35:33.240Z,25.20
2018-08-28T17:38:57.639Z,25.00
2018-08-28T17:42:22.212Z,24.70
2018-08-28T17:45:46.658Z,24.50
2018-08-28T17:49:11.169Z,24.30
2018-08-28T17:52:35.755Z,24.10
2018-08-28T17:56:00.197Z,23.90
2018-08-28T17:59:24.638Z,23.70
2018-08-28T18:02:49.131Z,23.50
2018-08-28T18:06:13.553Z,23.20
2018-08-28T18:09:38.047Z,22.90
2018-08-28T18:13:02.567Z,22.60
2018-08-28T18:16:27.103Z,22.40
2018-08-28T18:19:51.494Z,22.20
2018-08-28T18:23:15.920Z,22.00
2018-08-28T18:26:40.321Z,21.80
2018-08-28T18:30:04.748Z,21.70
2018-08-28T18:33:29.305Z,21.50
2018-08-28T18:36:53.747Z,21.40
2018-08-28T18:40:18.185Z,21.20
2018-08-28T18:43:42.648Z,21.10
2018-08-28T18:47:07.177Z,21.00
2018-08-28T18:50:31.622Z,20.80
2018-08-28T18:53:56.961Z,20.70
2018-08-28T18:57:21.527Z,20.60
2018-08-28T19:00:45.988Z,20.50
2018-08-28T19:04:10.532Z,20.30
2018-08-28T19:07:35.045Z,20.20
2018-08-28T19:10:59.564Z,20.00
2018-08-28T19:14:24.106Z,20.00
2018-08-28T19:17:48.581Z,19.80
2018-08-28T19:21:12.971Z,19.70
2018-08-28T19:24:37.663Z,19.50
2018-08-28T19:28:02.107Z,19.50
2018-08-28T19:31:26.590Z,19.40
2018-08-28T19:34:52.116Z,19.40
2018-08-28T19:38:17.249Z,19.30
2018-08-28T19:41:43.684Z,19.30
2018-08-28T19:45:08.773Z,19.10
2018-08-28T19:48:33.800Z,19.10
2018-08-28T19:51:58.252Z,19.00
2018-08-28T19:55:23.513Z,18.80
2018-08-28T19:58:48.315Z,18.80
2018-08-28T20:02:13.033Z,18.70
2018-08-28T20:05:37.986Z,18.70
2018-08-28T20:09:04.181Z,18.60
2018-08-28T20:12:28.585Z,18.50
2018-08-28T20:15:53.062Z,18.40
2018-08-28T20:19:17.511Z,18.40
2018-08-28T20:22:41.911Z,18.30
2018-08-28T20:26:06.751Z,18.20
2018-08-28T20:29:31.140Z,18.00
2018-08-28T20:32:55.540Z,18.00
2018-08-28T20:36:19.993Z,18.00
2018-08-28T20:39:44.392Z,17.90
2018-08-28T20:43:08.845Z,17.80
2018-08-28T20:46:33.315Z,17.80
2018-08-28T20:49:57.833Z,17.80
2018-08-28T20:53:22.257Z,17.70
2018-08-28T20:56:46.707Z,17.70
2018-08-28T21:00:11.130Z,17.70
2018-08-28T21:03:35.520Z,17.70
2018-08-28T21:07:00.078Z,17.70
2018-08-28T21:10:24.461Z,17.70
2018-08-28T21:13:48.874Z,17.70
2018-08-28T21:17:13.267Z,17.70
2018-08-28T21:20:37.681Z,17.60
2018-08-28T21:24:02.057Z,17.60
2018-08-28T21:27:26.592Z,17.60
2018-08-28T21:30:51.205Z,17.60
2018-08-28T21:34:15.628Z,17.60
2018-08-28T21:37:40.105Z,17.60
2018-08-28T21:41:04.599Z,17.50
2018-08-28T21:44:29.039Z,17.50
2018-08-28T21:47:53.552Z,17.50
2018-08-28T21:51:17.995Z,17.50
2018-08-28T21:54:42.455Z,17.40
2018-08-28T21:58:06.934Z,17.40
2018-08-28T22:01:31.384Z,17.40
2018-08-28T22:04:55.805Z,17.30
2018-08-28T22:08:20.275Z,17.30
2018-08-28T22:11:44.730Z,17.30
2018-08-28T22:15:13.924Z,17.30
2018-08-28T22:18:38.347Z,17.30
2018-08-28T22:22:02.824Z,17.30
2018-08-28T22:25:27.241Z,17.30
2018-08-28T22:28:51.682Z,17.20
2018-08-28T22:32:16.171Z,17.20
2018-08-28T22:35:40.595Z,17.10
2018-08-28T22:39:05.959Z,17.10
2018-08-28T22:42:30.467Z,17.00
2018-08-28T22:45:54.883Z,16.90
2018-08-28T22:49:19.299Z,16.90
2018-08-28T22:52:43.728Z,16.80
2018-08-28T22:56:08.227Z,16.80
2018-08-28T22:59:32.654Z,16.60
2018-08-28T23:02:57.083Z,16.50
2018-08-28T23:06:21.516Z,16.40
2018-08-28T23:09:45.976Z,16.30
2018-08-28T23:13:10.429Z,16.30
2018-08-28T23:16:34.903Z,16.10
2018-08-28T23:19:59.289Z,16.10
2018-08-28T23:23:23.725Z,16.10
2018-08-28T23:26:48.191Z,16.00
2018-08-28T23:30:12.587Z,16.00
2018-08-28T23:33:37.019Z,16.00
2018-08-28T23:37:01.465Z,16.00
2018-08-28T23:40:25.916Z,16.00
2018-08-28T23:43:50.339Z,16.00
2018-08-28T23:47:14.779Z,16.00
2018-08-28T23:50:39.271Z,16.00
2018-08-28T23:54:03.774Z,16.00
2018-08-28T23:57:28.203Z,16.00
